createdAt,value
2017-04-25T00:00:54.073Z,970.1
2017-04-25T00:01:56.457Z,970.1
2017-04-25T00:02:59.489Z,970.1
2017-04-25T00:04:01.870Z,970.1
2017-04-25T00:05:04.285Z,970
2017-04-25T00:06:06.676Z,970
2017-04-25T00:07:09.082Z,970
2017-04-25T00:08:11.480Z,969.9
2017-04-25T00:09:13.918Z,969.9
2017-04-25T00:10:16.533Z,970
2017-04-25T00:11:18.950Z,969.9
2017-04-25T00:12:21.310Z,969.7
2017-04-25T00:13:23.708Z,970
2017-04-25T00:14:26.105Z,970
2017-04-25T00:15:28.521Z,969.9
2017-04-25T00:16:30.941Z,969.9
2017-04-25T00:17:33.305Z,969.8
2017-04-25T00:18:35.689Z,969.8
2017-04-25T00:19:38.107Z,969.8
2017-04-25T00:20:40.505Z,969.8
2017-04-25T00:21:42.868Z,969.8
2017-04-25T00:22:45.322Z,969.8
2017-04-25T00:23:47.737Z,969.7
2017-04-25T00:24:50.131Z,969.7
2017-04-25T00:25:53.491Z,969.7
2017-04-25T00:26:55.829Z,969.7
2017-04-25T00:27:58.240Z,969.6
2017-04-25T00:29:00.634Z,969.6
2017-04-25T00:30:03.089Z,969.6
2017-04-25T00:31:05.470Z,969.6
2017-04-25T00:32:08.495Z,969.6
2017-04-25T00:33:10.865Z,969.6
2017-04-25T00:34:13.254Z,969.6
2017-04-25T00:35:15.625Z,969.5
2017-04-25T00:36:18.037Z,969.6
2017-04-25T00:37:20.417Z,969.5
2017-04-25T00:38:22.832Z,969.5
2017-04-25T00:39:25.645Z,969.5
2017-04-25T00:40:28.037Z,969.5
2017-04-25T00:41:30.511Z,969.4
2017-04-25T00:42:32.912Z,969.4
2017-04-25T00:43:35.328Z,969.5
2017-04-25T00:44:37.724Z,969.4
2017-04-25T00:45:40.114Z,969.5
2017-04-25T00:46:42.525Z,969.5
2017-04-25T00:47:44.957Z,969.4
2017-04-25T00:48:47.390Z,969.3
2017-04-25T00:49:49.799Z,969.3
2017-04-25T00:50:52.179Z,969.3
2017-04-25T00:51:54.732Z,969.3
2017-04-25T00:52:57.165Z,969.3
2017-04-25T00:53:59.556Z,969.2
2017-04-25T00:55:01.932Z,969.3
2017-04-25T00:56:04.280Z,969.3
2017-04-25T00:57:06.719Z,969.3
2017-04-25T00:58:09.141Z,969.3
2017-04-25T00:59:11.517Z,969.2
2017-04-25T01:00:16.061Z,969.2
2017-04-25T01:01:18.479Z,969.2
2017-04-25T01:02:20.886Z,969.2
2017-04-25T01:03:23.252Z,969.2
2017-04-25T01:04:25.709Z,969.1
2017-04-25T01:05:28.182Z,969.1
2017-04-25T01:06:30.597Z,969.1
2017-04-25T01:07:33.009Z,969.1
2017-04-25T01:08:35.419Z,969.1
2017-04-25T01:09:37.857Z,968.9
2017-04-25T01:10:40.310Z,969.1
2017-04-25T01:11:42.681Z,969.1
2017-04-25T01:12:45.133Z,969.1
2017-04-25T01:13:47.516Z,969.1
2017-04-25T01:14:49.917Z,969
2017-04-25T01:15:52.272Z,969.1
2017-04-25T01:16:54.732Z,969
2017-04-25T01:17:57.049Z,969
2017-04-25T01:18:59.459Z,969
2017-04-25T01:20:01.823Z,969
2017-04-25T01:21:04.174Z,969
2017-04-25T01:22:06.545Z,969
2017-04-25T01:23:08.920Z,969
2017-04-25T01:24:11.272Z,969
2017-04-25T01:25:13.630Z,969
2017-04-25T01:26:16.013Z,969
2017-04-25T01:27:18.420Z,969
2017-04-25T01:28:20.770Z,969
2017-04-25T01:29:23.171Z,969
2017-04-25T01:30:30.624Z,969
2017-04-25T01:31:33.009Z,969
2017-04-25T01:32:35.441Z,969
2017-04-25T01:33:37.912Z,969
2017-04-25T01:34:40.289Z,969
2017-04-25T01:35:42.625Z,969
2017-04-25T01:36:44.999Z,968.9
2017-04-25T01:37:47.503Z,968.9
2017-04-25T01:38:49.888Z,968.9
2017-04-25T01:39:52.228Z,968.9
2017-04-25T01:40:54.644Z,968.9
2017-04-25T01:41:56.968Z,968.9
2017-04-25T01:42:59.450Z,968.9
2017-04-25T01:44:01.801Z,968.9
2017-04-25T01:45:04.206Z,968.9
2017-04-25T01:46:06.567Z,968.8
2017-04-25T01:47:09.221Z,968.8
2017-04-25T01:48:11.631Z,968.9
2017-04-25T01:49:14.017Z,968.8
2017-04-25T01:50:16.390Z,968.8
2017-04-25T01:51:18.784Z,968.8
2017-04-25T01:52:21.153Z,968.8
2017-04-25T01:53:23.536Z,968.7
2017-04-25T01:54:25.963Z,968.7
2017-04-25T01:55:28.632Z,968.8
2017-04-25T01:56:31.042Z,968.7
2017-04-25T01:57:33.459Z,968.7
2017-04-25T01:58:35.887Z,968.6
2017-04-25T01:59:38.351Z,968.6
2017-04-25T02:00:40.849Z,968.6
2017-04-25T02:01:43.209Z,968.6
2017-04-25T02:02:45.712Z,968.6
2017-04-25T02:03:48.142Z,968.6
2017-04-25T02:04:50.515Z,968.6
2017-04-25T02:05:52.889Z,968.6
2017-04-25T02:06:55.306Z,968.6
2017-04-25T02:07:57.690Z,968.6
2017-04-25T02:09:00.064Z,968.5
2017-04-25T02:10:02.760Z,968.5
2017-04-25T02:11:05.241Z,968.5
2017-04-25T02:12:07.772Z,968.5
2017-04-25T02:13:10.112Z,968.5
2017-04-25T02:14:12.530Z,968.5
2017-04-25T02:15:14.963Z,968.5
2017-04-25T02:16:17.620Z,968.4
2017-04-25T02:17:20.050Z,968.4
2017-04-25T02:18:22.433Z,968.4
2017-04-25T02:19:24.844Z,968.4
2017-04-25T02:20:27.241Z,968.4
2017-04-25T02:21:29.624Z,968.4
2017-04-25T02:22:32.001Z,968.4
2017-04-25T02:23:34.412Z,968.4
2017-04-25T02:24:36.805Z,968.4
2017-04-25T02:25:39.189Z,968.4
2017-04-25T02:26:41.534Z,968.3
2017-04-25T02:27:43.907Z,968.4
2017-04-25T02:28:46.241Z,968.3
2017-04-25T02:29:48.610Z,968.4
2017-04-25T02:30:50.932Z,968.3
2017-04-25T02:31:53.349Z,968.3
2017-04-25T02:32:55.676Z,968.3
2017-04-25T02:33:58.109Z,968.3
2017-04-25T02:35:00.459Z,968.3
2017-04-25T02:36:02.787Z,968.3
2017-04-25T02:37:05.142Z,968.3
2017-04-25T02:38:07.511Z,968.3
2017-04-25T02:39:09.928Z,968.3
2017-04-25T02:40:12.275Z,968.3
2017-04-25T02:41:15.755Z,968.3
2017-04-25T02:42:18.134Z,968.3
2017-04-25T02:43:20.513Z,968.3
2017-04-25T02:44:22.868Z,968.2
2017-04-25T02:45:25.230Z,968.2
2017-04-25T02:46:27.599Z,968.2
2017-04-25T02:47:30.004Z,968.2
2017-04-25T02:48:32.921Z,968.2
2017-04-25T02:49:35.272Z,968
2017-04-25T02:50:37.662Z,968.2
2017-04-25T02:51:40.006Z,968.2
2017-04-25T02:52:42.411Z,968.1
2017-04-25T02:53:44.799Z,968.2
2017-04-25T02:54:47.217Z,968.2
2017-04-25T02:55:49.568Z,968.2
2017-04-25T02:56:51.970Z,968.2
2017-04-25T02:57:54.301Z,968.1
2017-04-25T02:58:56.678Z,968.2
2017-04-25T02:59:58.989Z,968.1
2017-04-25T03:01:01.354Z,968.1
2017-04-25T03:02:03.779Z,968.1
2017-04-25T03:03:06.125Z,968.1
2017-04-25T03:04:08.504Z,968.1
2017-04-25T03:05:10.878Z,968.1
2017-04-25T03:06:13.285Z,968.1
2017-04-25T03:07:15.625Z,968
2017-04-25T03:08:17.950Z,968
2017-04-25T03:09:20.337Z,968
2017-04-25T03:10:22.699Z,968
2017-04-25T03:11:25.071Z,968
2017-04-25T03:12:27.521Z,968.1
2017-04-25T03:13:30.208Z,968
2017-04-25T03:14:33.227Z,968
2017-04-25T03:15:35.689Z,968
2017-04-25T03:16:38.077Z,968
2017-04-25T03:17:40.442Z,968
2017-04-25T03:18:42.809Z,968
2017-04-25T03:19:45.179Z,968
2017-04-25T03:20:47.687Z,968
2017-04-25T03:21:50.058Z,968
2017-04-25T03:22:52.469Z,968
2017-04-25T03:23:54.837Z,967.9
2017-04-25T03:24:57.227Z,967.9
2017-04-25T03:25:59.625Z,967.9
2017-04-25T03:27:02.139Z,967.9
2017-04-25T03:28:05.313Z,967.9
2017-04-25T03:29:07.706Z,967.9
2017-04-25T03:30:10.062Z,967.9
2017-04-25T03:31:12.440Z,967.7
2017-04-25T03:32:14.828Z,967.9
2017-04-25T03:33:17.207Z,967.9
2017-04-25T03:34:24.568Z,967.9
2017-04-25T03:35:26.888Z,968
2017-04-25T03:36:29.230Z,967.9
2017-04-25T03:37:31.615Z,967.9
2017-04-25T03:38:34.635Z,968
2017-04-25T03:39:37.030Z,967.9
2017-04-25T03:40:39.463Z,967.9
2017-04-25T03:41:41.862Z,967.9
2017-04-25T03:42:44.224Z,967.9
2017-04-25T03:43:46.613Z,967.9
2017-04-25T03:44:49.036Z,967.9
2017-04-25T03:45:51.389Z,968
2017-04-25T03:46:53.771Z,967.9
2017-04-25T03:47:56.096Z,967.8
2017-04-25T03:48:58.476Z,967.8
2017-04-25T03:50:00.967Z,967.8
2017-04-25T03:51:03.317Z,967.8
2017-04-25T03:52:05.666Z,967.8
2017-04-25T03:53:07.975Z,967.8
2017-04-25T03:54:10.332Z,967.8
2017-04-25T03:55:12.682Z,967.8
2017-04-25T03:56:15.036Z,967.8
2017-04-25T03:57:17.376Z,967.8
2017-04-25T03:58:19.732Z,967.8
2017-04-25T03:59:22.179Z,967.8
2017-04-25T04:00:24.719Z,967.9
2017-04-25T04:01:27.288Z,967.9
2017-04-25T04:02:29.744Z,967.9
2017-04-25T04:03:32.424Z,967.8
2017-04-25T04:04:35.101Z,967.6
2017-04-25T04:05:37.500Z,967.8
2017-04-25T04:06:39.900Z,967.9
2017-04-25T04:07:42.504Z,967.9
2017-04-25T04:08:44.983Z,967.9
2017-04-25T04:09:47.543Z,967.9
2017-04-25T04:10:50.136Z,967.9
2017-04-25T04:11:52.480Z,967.9
2017-04-25T04:12:54.856Z,968
2017-04-25T04:13:57.365Z,968
2017-04-25T04:14:59.776Z,968
2017-04-25T04:16:02.128Z,968.1
2017-04-25T04:17:04.483Z,968
2017-04-25T04:18:06.844Z,968
2017-04-25T04:19:09.221Z,968
2017-04-25T04:20:11.592Z,968.1
2017-04-25T04:21:14.049Z,968.1
2017-04-25T04:22:16.505Z,968.1
2017-04-25T04:23:18.964Z,968.2
2017-04-25T04:24:21.376Z,968.2
2017-04-25T04:25:23.725Z,968.3
2017-04-25T04:26:26.082Z,968.4
2017-04-25T04:27:28.664Z,968.4
2017-04-25T04:28:31.094Z,968.4
2017-04-25T04:29:33.765Z,968.5
2017-04-25T04:30:36.184Z,968.6
2017-04-25T04:31:38.927Z,968.6
2017-04-25T04:32:43.376Z,968.6
2017-04-25T04:33:45.839Z,968.6
2017-04-25T04:34:48.232Z,968.7
2017-04-25T04:35:50.686Z,968.8
2017-04-25T04:36:53.033Z,968.7
2017-04-25T04:37:55.386Z,968.8
2017-04-25T04:38:57.764Z,968.8
2017-04-25T04:40:00.321Z,968.6
2017-04-25T04:41:03.020Z,968.9
2017-04-25T04:42:05.504Z,969
2017-04-25T04:43:08.124Z,969
2017-04-25T04:44:10.544Z,969.1
2017-04-25T04:45:12.976Z,969.1
2017-04-25T04:46:15.577Z,969.1
2017-04-25T04:47:18.308Z,969.2
2017-04-25T04:48:21.196Z,969.3
2017-04-25T04:49:23.658Z,969.4
2017-04-25T04:50:26.053Z,969.4
2017-04-25T04:51:28.444Z,969.4
2017-04-25T04:52:31.122Z,969.4
2017-04-25T04:53:33.713Z,969.4
2017-04-25T04:54:36.065Z,969.4
2017-04-25T04:55:38.506Z,969.4
2017-04-25T04:56:40.877Z,969.4
2017-04-25T04:57:43.237Z,969.4
2017-04-25T04:58:45.636Z,969.5
2017-04-25T04:59:48.020Z,969.5
2017-04-25T05:00:50.396Z,969.4
2017-04-25T05:01:54.932Z,969.5
2017-04-25T05:02:57.319Z,969.5
2017-04-25T05:03:59.690Z,969.4
2017-04-25T05:05:02.044Z,969.5
2017-04-25T05:06:04.513Z,969.4
2017-04-25T05:07:06.948Z,969.4
2017-04-25T05:08:09.316Z,969.4
2017-04-25T05:09:11.700Z,969.5
2017-04-25T05:10:14.067Z,969.6
2017-04-25T05:11:16.662Z,969.5
2017-04-25T05:12:21.069Z,969.5
2017-04-25T05:13:23.586Z,969.6
2017-04-25T05:14:26.026Z,969.6
2017-04-25T05:15:28.421Z,969.6
2017-04-25T05:16:30.800Z,969.6
2017-04-25T05:17:33.239Z,969.7
2017-04-25T05:18:35.665Z,969.6
2017-04-25T05:19:38.234Z,969.7
2017-04-25T05:20:40.684Z,969.7
2017-04-25T05:21:43.086Z,969.7
2017-04-25T05:22:45.557Z,969.7
2017-04-25T05:23:47.991Z,969.6
2017-04-25T05:24:50.436Z,969.7
2017-04-25T05:25:52.820Z,969.7
2017-04-25T05:26:55.235Z,969.7
2017-04-25T05:27:57.686Z,969.7
2017-04-25T05:29:00.065Z,969.7
2017-04-25T05:30:02.555Z,969.7
2017-04-25T05:31:04.974Z,969.8
2017-04-25T05:32:07.393Z,969.6
2017-04-25T05:33:09.915Z,969.7
2017-04-25T05:34:12.371Z,969.7
2017-04-25T05:35:14.812Z,969.7
2017-04-25T05:36:17.215Z,969.8
2017-04-25T05:37:19.670Z,969.7
2017-04-25T05:38:22.111Z,969.8
2017-04-25T05:39:24.523Z,969.6
2017-04-25T05:40:26.941Z,969.6
2017-04-25T05:41:29.719Z,969.8
2017-04-25T05:42:32.134Z,969.5
2017-04-25T05:43:34.531Z,969.8
2017-04-25T05:44:36.886Z,969.8
2017-04-25T05:45:39.349Z,969.8
2017-04-25T05:46:42.301Z,969.8
2017-04-25T05:47:45.472Z,969.8
2017-04-25T05:48:47.857Z,969.9
2017-04-25T05:49:50.224Z,969.9
2017-04-25T05:50:52.600Z,969.8
2017-04-25T05:51:54.997Z,969.9
2017-04-25T05:52:57.734Z,969.9
2017-04-25T05:54:00.156Z,969.9
2017-04-25T05:55:02.578Z,969.8
2017-04-25T05:56:04.977Z,969.9
2017-04-25T05:57:08.369Z,969.8
2017-04-25T05:58:10.758Z,969.8
2017-04-25T05:59:13.181Z,969.8
2017-04-25T06:00:15.605Z,969.8
2017-04-25T06:01:17.961Z,969.9
2017-04-25T06:02:20.350Z,969.9
2017-04-25T06:03:22.721Z,969.8
2017-04-25T06:04:26.736Z,969.9
2017-04-25T06:05:29.175Z,969.6
2017-04-25T06:06:31.572Z,969.9
2017-04-25T06:07:33.940Z,969.9
2017-04-25T06:08:36.462Z,969.8
2017-04-25T06:09:38.851Z,969.9
2017-04-25T06:10:41.630Z,969.9
2017-04-25T06:11:44.273Z,970
2017-04-25T06:12:46.771Z,969.9
2017-04-25T06:13:49.163Z,970
2017-04-25T06:14:51.686Z,970
2017-04-25T06:15:54.135Z,969.9
2017-04-25T06:16:56.629Z,970
2017-04-25T06:17:59.177Z,970
2017-04-25T06:19:01.610Z,969.5
2017-04-25T06:20:04.005Z,969.9
2017-04-25T06:21:06.438Z,969.9
2017-04-25T06:22:08.856Z,969.9
2017-04-25T06:23:11.302Z,969.9
2017-04-25T06:24:13.708Z,969.7
2017-04-25T06:25:16.851Z,970
2017-04-25T06:26:19.246Z,969.6
2017-04-25T06:27:21.734Z,969.7
2017-04-25T06:28:24.143Z,969.9
2017-04-25T06:29:26.610Z,970
2017-04-25T06:30:29.060Z,970
2017-04-25T06:31:31.434Z,969.9
2017-04-25T06:32:33.800Z,970
2017-04-25T06:33:36.272Z,970
2017-04-25T06:34:38.971Z,970
2017-04-25T06:35:41.568Z,970
2017-04-25T06:36:44.064Z,970
2017-04-25T06:37:46.991Z,970.1
2017-04-25T06:38:49.486Z,969.8
2017-04-25T06:39:52.024Z,969.9
2017-04-25T06:40:54.504Z,970
2017-04-25T06:41:57.039Z,970
2017-04-25T06:42:59.482Z,970
2017-04-25T06:44:01.889Z,970
2017-04-25T06:45:04.258Z,970
2017-04-25T06:46:06.780Z,970
2017-04-25T06:47:09.158Z,970
2017-04-25T06:48:11.648Z,970.1
2017-04-25T06:49:14.049Z,970
2017-04-25T06:50:17.124Z,970
2017-04-25T06:51:19.726Z,970
2017-04-25T06:52:25.650Z,970
2017-04-25T06:53:28.166Z,970
2017-04-25T06:54:31.287Z,970
2017-04-25T06:55:33.709Z,970
2017-04-25T06:56:37.149Z,970.1
2017-04-25T06:57:39.701Z,970
2017-04-25T06:58:44.392Z,970
2017-04-25T06:59:47.150Z,970.1
2017-04-25T07:00:50.525Z,970.1
2017-04-25T07:01:53.229Z,970.1
2017-04-25T07:02:56.395Z,970.1
2017-04-25T07:03:58.960Z,970
2017-04-25T07:05:02.058Z,970
2017-04-25T07:06:04.608Z,970.1
2017-04-25T07:07:09.440Z,970.2
2017-04-25T07:08:12.194Z,970.1
2017-04-25T07:09:15.168Z,970.1
2017-04-25T07:10:17.608Z,970.2
2017-04-25T07:11:20.464Z,970.2
2017-04-25T07:12:23.335Z,970.1
2017-04-25T07:13:26.036Z,970
2017-04-25T07:14:28.495Z,970.1
2017-04-25T07:15:31.213Z,970.1
2017-04-25T07:16:33.960Z,970.1
2017-04-25T07:17:37.647Z,970.1
2017-04-25T07:18:40.208Z,970.1
2017-04-25T07:19:42.744Z,970.1
2017-04-25T07:20:45.275Z,970
2017-04-25T07:21:48.039Z,970.1
2017-04-25T07:22:50.682Z,970.2
2017-04-25T07:23:53.343Z,970
2017-04-25T07:24:55.864Z,970.2
2017-04-25T07:25:58.284Z,970.2
2017-04-25T07:27:00.898Z,970.2
2017-04-25T07:28:04.053Z,970.2
2017-04-25T07:29:06.713Z,970.3
2017-04-25T07:30:10.001Z,970.3
2017-04-25T07:31:12.507Z,970.3
2017-04-25T07:32:15.109Z,970.3
2017-04-25T07:33:17.648Z,970.2
2017-04-25T07:34:20.760Z,970.3
2017-04-25T07:35:23.898Z,970.3
2017-04-25T07:36:26.369Z,970.3
2017-04-25T07:37:28.898Z,970.3
2017-04-25T07:38:31.479Z,970.3
2017-04-25T07:39:34.150Z,970.3
2017-04-25T07:40:36.750Z,970.3
2017-04-25T07:41:39.268Z,970.3
2017-04-25T07:42:41.871Z,970.3
2017-04-25T07:43:44.406Z,970.3
2017-04-25T07:44:46.942Z,970.4
2017-04-25T07:45:49.486Z,970.3
2017-04-25T07:46:52.185Z,970.3
2017-04-25T07:47:54.769Z,970.3
2017-04-25T07:48:57.530Z,970.3
2017-04-25T07:50:00.018Z,970.2
2017-04-25T07:51:02.615Z,970.3
2017-04-25T07:52:05.307Z,970.3
2017-04-25T07:53:07.954Z,970.3
2017-04-25T07:54:10.388Z,970.4
2017-04-25T07:55:12.972Z,970.4
2017-04-25T07:56:15.466Z,970.3
2017-04-25T07:57:18.269Z,970.4
2017-04-25T07:58:22.481Z,970.4
2017-04-25T07:59:24.978Z,970.4
2017-04-25T08:00:27.560Z,970.3
2017-04-25T08:01:30.895Z,970.4
2017-04-25T08:02:33.374Z,970.3
2017-04-25T08:03:35.913Z,970.3
2017-04-25T08:04:38.433Z,970.4
2017-04-25T08:05:41.024Z,970.4
2017-04-25T08:06:43.600Z,970.3
2017-04-25T08:07:46.240Z,970.4
2017-04-25T08:08:48.627Z,970.5
2017-04-25T08:09:51.437Z,970.4
2017-04-25T08:10:53.950Z,970.4
2017-04-25T08:11:56.665Z,970.5
2017-04-25T08:12:59.229Z,970.5
2017-04-25T08:14:01.939Z,970.5
2017-04-25T08:15:04.604Z,970.5
2017-04-25T08:16:07.741Z,970.5
2017-04-25T08:17:10.592Z,970.5
2017-04-25T08:18:13.084Z,970.4
2017-04-25T08:19:15.604Z,970.4
2017-04-25T08:20:18.061Z,970.5
2017-04-25T08:21:21.138Z,970.5
2017-04-25T08:22:23.965Z,970.2
2017-04-25T08:23:26.854Z,970.5
2017-04-25T08:24:29.288Z,970.5
2017-04-25T08:25:32.143Z,970.5
2017-04-25T08:26:34.702Z,970.3
2017-04-25T08:27:37.250Z,970.5
2017-04-25T08:28:39.773Z,970.5
2017-04-25T08:29:42.239Z,970.5
2017-04-25T08:30:44.868Z,970.4
2017-04-25T08:31:47.680Z,970.5
2017-04-25T08:32:50.220Z,970.5
2017-04-25T08:33:52.687Z,970.5
2017-04-25T08:34:55.957Z,970.6
2017-04-25T08:35:58.629Z,970.5
2017-04-25T08:37:01.330Z,970.1
2017-04-25T08:38:03.804Z,970.5
2017-04-25T08:39:06.329Z,970.5
2017-04-25T08:40:08.952Z,970.5
2017-04-25T08:41:12.301Z,970.5
2017-04-25T08:42:14.846Z,970.6
2017-04-25T08:43:18.334Z,970.5
2017-04-25T08:45:32.461Z,970.6
2017-04-25T08:46:34.932Z,970.4
2017-04-25T08:47:37.414Z,970.5
2017-04-25T08:48:39.964Z,970.5
2017-04-25T08:49:42.411Z,970.4
2017-04-25T08:50:44.860Z,970.4
2017-04-25T08:51:47.335Z,970.4
2017-04-25T08:52:49.886Z,970.5
2017-04-25T08:53:52.524Z,970.5
2017-04-25T08:54:54.965Z,970.5
2017-04-25T08:55:57.559Z,970.6
2017-04-25T08:57:00.092Z,970.6
2017-04-25T08:58:02.874Z,970.6
2017-04-25T08:59:05.248Z,970.6
2017-04-25T09:00:07.750Z,970.5
2017-04-25T09:01:10.217Z,970.5
2017-04-25T09:02:12.710Z,970.5
2017-04-25T09:03:15.341Z,970.5
2017-04-25T09:04:18.396Z,970.4
2017-04-25T09:05:20.931Z,970.4
2017-04-25T09:06:23.615Z,970.4
2017-04-25T09:07:26.202Z,970.4
2017-04-25T09:08:28.922Z,970.5
2017-04-25T09:09:31.706Z,970.5
2017-04-25T09:10:34.162Z,970.5
2017-04-25T09:11:36.652Z,970.4
2017-04-25T09:12:39.235Z,970.5
2017-04-25T09:13:41.905Z,970.5
2017-04-25T09:14:44.542Z,970.6
2017-04-25T09:15:47.331Z,970.6
2017-04-25T09:16:50.621Z,970.4
2017-04-25T09:17:53.322Z,970.7
2017-04-25T09:18:55.748Z,970.8
2017-04-25T09:19:58.238Z,971.1
2017-04-25T09:21:00.752Z,971.2
2017-04-25T09:22:03.261Z,971
2017-04-25T09:23:05.784Z,971.1
2017-04-25T09:24:08.266Z,971
2017-04-25T09:25:10.802Z,971
2017-04-25T09:26:13.439Z,971
2017-04-25T09:27:16.113Z,971.2
2017-04-25T09:28:21.266Z,971.1
2017-04-25T09:29:23.912Z,971.2
2017-04-25T09:30:26.489Z,971.2
2017-04-25T09:31:29.668Z,971.2
2017-04-25T09:32:32.255Z,971.2
2017-04-25T09:33:34.853Z,971.2
2017-04-25T09:34:37.418Z,971.3
2017-04-25T09:35:39.870Z,971.2
2017-04-25T09:36:42.328Z,971.3
2017-04-25T09:37:44.944Z,971.3
2017-04-25T09:38:47.521Z,971.3
2017-04-25T09:39:49.930Z,971.3
2017-04-25T09:40:52.835Z,971.3
2017-04-25T09:41:55.374Z,971.3
2017-04-25T09:42:58.055Z,971.3
2017-04-25T09:44:00.848Z,971.2
2017-04-25T09:45:03.273Z,971.3
2017-04-25T09:46:06.289Z,971
2017-04-25T09:47:08.813Z,971.2
2017-04-25T09:48:11.437Z,971.2
2017-04-25T09:49:13.899Z,971
2017-04-25T09:50:16.417Z,971.2
2017-04-25T09:51:18.907Z,971.1
2017-04-25T09:52:21.774Z,970.9
2017-04-25T09:53:24.416Z,971
2017-04-25T09:54:27.017Z,971
2017-04-25T09:55:29.592Z,971.2
2017-04-25T09:56:32.085Z,971.2
2017-04-25T09:57:34.592Z,971.1
2017-04-25T09:58:37.265Z,971.2
2017-04-25T09:59:39.854Z,971.2
2017-04-25T10:00:43.622Z,971.2
2017-04-25T10:01:46.429Z,971
2017-04-25T10:02:49.094Z,971.2
2017-04-25T10:03:52.038Z,971.1
2017-04-25T10:04:54.696Z,971.2
2017-04-25T10:05:57.403Z,971.2
2017-04-25T10:06:59.969Z,971.1
2017-04-25T10:08:02.653Z,971.2
2017-04-25T10:09:05.693Z,971.2
2017-04-25T10:10:08.112Z,971.2
2017-04-25T10:11:10.661Z,971.1
2017-04-25T10:12:13.425Z,971.1
2017-04-25T10:13:16.173Z,971
2017-04-25T10:14:19.364Z,971.2
2017-04-25T10:15:22.260Z,971.3
2017-04-25T10:16:24.782Z,971.2
2017-04-25T10:17:27.682Z,971
2017-04-25T10:18:31.930Z,971.1
2017-04-25T10:19:34.628Z,971.2
2017-04-25T10:20:37.166Z,971.3
2017-04-25T10:21:39.872Z,971.3
2017-04-25T10:22:43.059Z,971.3
2017-04-25T10:23:45.844Z,971.1
2017-04-25T10:24:48.469Z,971.4
2017-04-25T10:25:51.260Z,971.4
2017-04-25T10:26:53.822Z,971.4
2017-04-25T10:27:56.543Z,971.2
2017-04-25T10:28:59.165Z,971.5
2017-04-25T10:30:01.787Z,971.4
2017-04-25T10:31:04.498Z,971.3
2017-04-25T10:32:07.465Z,971.3
2017-04-25T10:33:10.186Z,971.3
2017-04-25T10:34:12.910Z,971.4
2017-04-25T10:35:15.505Z,971.3
2017-04-25T10:36:18.556Z,971.3
2017-04-25T10:37:21.520Z,971.3
2017-04-25T10:38:25.670Z,971.2
2017-04-25T10:39:28.819Z,971.2
2017-04-25T10:40:31.390Z,971.2
2017-04-25T10:41:33.815Z,971
2017-04-25T10:42:36.432Z,971.2
2017-04-25T10:44:47.228Z,971.2
2017-04-25T10:45:50.098Z,971.2
2017-04-25T10:46:53.693Z,971.2
2017-04-25T10:47:56.254Z,971.1
2017-04-25T10:48:58.981Z,971.1
2017-04-25T10:50:01.839Z,971.1
2017-04-25T10:51:04.629Z,971.2
2017-04-25T10:52:07.244Z,971.1
2017-04-25T10:53:11.217Z,971.1
2017-04-25T10:54:14.791Z,971.1
2017-04-25T10:55:18.160Z,971.2
2017-04-25T10:56:21.038Z,971.1
2017-04-25T10:57:24.213Z,971.1
2017-04-25T10:58:27.258Z,971.1
2017-04-25T10:59:32.074Z,971.1
2017-04-25T11:00:35.356Z,971.2
2017-04-25T11:01:39.462Z,971.2
2017-04-25T11:02:42.859Z,971.2
2017-04-25T11:03:45.553Z,970.9
2017-04-25T11:04:49.381Z,970.9
2017-04-25T11:05:52.772Z,970.9
2017-04-25T11:06:55.783Z,971.2
2017-04-25T11:07:59.248Z,971.2
2017-04-25T11:09:02.320Z,971.1
2017-04-25T11:10:04.937Z,971.2
2017-04-25T11:11:09.208Z,971.1
2017-04-25T11:12:14.120Z,970.9
2017-04-25T11:13:20.098Z,971.1
2017-04-25T11:14:23.585Z,971.2
2017-04-25T11:15:26.683Z,971.2
2017-04-25T11:16:31.199Z,971.2
2017-04-25T11:17:38.590Z,971.2
2017-04-25T11:18:41.533Z,971.3
2017-04-25T11:19:47.382Z,971.3
2017-04-25T11:20:52.075Z,971.2
2017-04-25T11:21:56.550Z,971
2017-04-25T11:23:04.062Z,970.8
2017-04-25T11:24:07.852Z,971.1
2017-04-25T11:25:12.970Z,971
2017-04-25T11:26:18.284Z,971
2017-04-25T11:27:26.219Z,971
2017-04-25T11:28:34.510Z,971.1
2017-04-25T11:29:40.420Z,971
2017-04-25T11:30:47.894Z,971.1
2017-04-25T11:31:53.128Z,971
2017-04-25T11:32:59.795Z,970.8
2017-04-25T11:34:05.056Z,971.2
2017-04-25T11:36:24.652Z,971.2
2017-04-25T11:37:33.036Z,971.2
2017-04-25T11:38:39.733Z,971.2
2017-04-25T11:39:44.219Z,971.2
2017-04-25T11:40:50.215Z,971.3
2017-04-25T11:41:53.183Z,971.5
2017-04-25T11:43:01.119Z,971.5
2017-04-25T11:44:06.622Z,971.5
2017-04-25T11:45:11.194Z,971.4
2017-04-25T11:46:19.445Z,971.3
2017-04-25T11:47:29.514Z,971
2017-04-25T11:48:41.212Z,971.3
2017-04-25T11:49:46.894Z,971.4
2017-04-25T11:50:55.166Z,971.2
2017-04-25T11:51:59.773Z,971.5
2017-04-25T11:53:05.091Z,971.6
2017-04-25T11:54:11.055Z,971.5
2017-04-25T11:55:18.977Z,971.2
2017-04-25T11:56:28.060Z,971.5
2017-04-25T11:57:36.401Z,971.5
2017-04-25T11:58:43.985Z,971.5
2017-04-25T11:59:52.041Z,971.5
2017-04-25T12:01:00.736Z,971.4
2017-04-25T12:02:09.637Z,971.5
2017-04-25T12:03:17.430Z,971.5
2017-04-25T12:04:26.849Z,971.6
2017-04-25T12:05:36.754Z,971.6
2017-04-25T12:06:46.469Z,971.6
2017-04-25T12:07:55.949Z,971.6
2017-04-25T12:09:02.966Z,971.7
2017-04-25T12:10:08.775Z,971.6
2017-04-25T12:11:19.056Z,971.6
2017-04-25T12:12:30.369Z,971.6
2017-04-25T12:13:40.841Z,971.7
2017-04-25T12:14:49.973Z,971.7
2017-04-25T12:17:14.613Z,971.7
2017-04-25T12:18:23.263Z,971.7
2017-04-25T12:19:31.170Z,971.7
2017-04-25T12:20:40.489Z,971.7
2017-04-25T12:21:48.742Z,971.7
2017-04-25T12:22:57.141Z,971.6
2017-04-25T12:24:05.496Z,971.5
2017-04-25T12:25:15.792Z,971.7
2017-04-25T12:26:26.632Z,971.7
2017-04-25T12:27:36.008Z,971.8
2017-04-25T12:28:47.930Z,971.7
2017-04-25T12:30:00.399Z,971.7
2017-04-25T12:31:08.663Z,971.6
2017-04-25T12:32:18.640Z,971.6
2017-04-25T12:33:27.679Z,971.4
2017-04-25T12:34:36.722Z,971.7
2017-04-25T12:35:44.729Z,971.6
2017-04-25T12:36:54.146Z,971.6
2017-04-25T12:38:02.822Z,971.6
2017-04-25T12:39:10.916Z,971.6
2017-04-25T12:40:17.897Z,971.6
2017-04-25T12:41:24.961Z,971.6
2017-04-25T12:42:34.037Z,971.7
2017-04-25T12:43:44.215Z,971.8
2017-04-25T12:44:51.961Z,971.9
2017-04-25T12:46:01.025Z,971.8
2017-04-25T12:47:10.358Z,971.7
2017-04-25T12:48:18.004Z,971.8
2017-04-25T12:49:26.658Z,971.6
2017-04-25T12:50:33.168Z,971.7
2017-04-25T12:51:40.552Z,971.8
2017-04-25T12:52:47.560Z,971.8
2017-04-25T12:53:58.137Z,971.7
2017-04-25T12:55:06.213Z,971.9
2017-04-25T12:56:14.527Z,971.9
2017-04-25T12:57:22.166Z,971.9
2017-04-25T12:58:33.538Z,972
2017-04-25T12:59:44.933Z,971.9
2017-04-25T13:00:50.340Z,971.9
2017-04-25T13:01:57.935Z,971.9
2017-04-25T13:03:06.045Z,971.7
2017-04-25T13:04:22.839Z,971.7
2017-04-25T13:05:31.655Z,971.6
2017-04-25T13:06:42.430Z,971.8
2017-04-25T13:07:47.684Z,971.7
2017-04-25T13:08:52.808Z,971.8
2017-04-25T13:10:00.684Z,971.8
2017-04-25T13:11:08.126Z,971.7
2017-04-25T13:12:17.059Z,971.7
2017-04-25T13:13:26.071Z,971.6
2017-04-25T13:14:32.996Z,971.6
2017-04-25T13:15:39.125Z,971.7
2017-04-25T13:16:51.149Z,971.7
2017-04-25T13:17:59.413Z,971.6
2017-04-25T13:19:08.625Z,971.6
2017-04-25T13:20:16.820Z,971.7
2017-04-25T13:21:29.174Z,971.8
2017-04-25T13:22:36.615Z,971.6
2017-04-25T13:23:40.136Z,971.7
2017-04-25T13:24:45.735Z,971.4
2017-04-25T13:25:49.764Z,971.4
2017-04-25T13:26:52.731Z,971.7
2017-04-25T13:27:55.599Z,971.8
2017-04-25T13:28:59.205Z,971.4
2017-04-25T13:30:01.850Z,971.7
2017-04-25T13:31:04.676Z,971.7
2017-04-25T13:32:07.405Z,971.7
2017-04-25T13:33:10.101Z,971.7
2017-04-25T13:34:13.944Z,971.8
2017-04-25T13:35:16.887Z,971.6
2017-04-25T13:36:20.063Z,971.8
2017-04-25T13:37:23.868Z,971.7
2017-04-25T13:38:27.665Z,971.8
2017-04-25T13:39:31.474Z,971.6
2017-04-25T13:40:34.276Z,971.9
2017-04-25T13:41:37.012Z,971.8
2017-04-25T13:42:40.631Z,971.8
2017-04-25T13:43:44.441Z,971.9
2017-04-25T13:44:47.218Z,971.9
2017-04-25T13:45:51.400Z,971.9
2017-04-25T13:46:56.820Z,972
2017-04-25T13:48:00.379Z,971.7
2017-04-25T13:49:03.173Z,972